sensor_id;sensor_type;location;lat;lon;timestamp;temperature;humidity
1165;DHT22;571;50.930;6.926;2023-03-05T03:46:44;6.20;96.30
1165;DHT22;571;50.930;6.926;2023-03-05T03:49:14;6.10;97.00
1165;DHT22;571;50.930;6.926;2023-03-05T03:51:41;6.10;97.00
1165;DHT22;571;50.930;6.926;2023-03-05T03:54:08;6.10;96.80
1165;DHT22;571;50.930;6.926;2023-03-05T03:56:34;6.10;96.80
1165;DHT22;571;50.930;6.926;2023-03-05T03:59:02;6.20;96.60
1165;DHT22;571;50.930;6.926;2023-03-05T04:01:28;6.20;96.30
1165;DHT22;571;50.930;6.926;2023-03-05T04:03:56;6.20;96.50
1165;DHT22;571;50.930;6.926;2023-03-05T04:06:23;6.10;97.00
1165;DHT22;571;50.930;6.926;2023-03-05T04:08:50;6.10;96.90
1165;DHT22;571;50.930;6.926;2023-03-05T04:11:17;6.00;96.90
1165;DHT22;571;50.930;6.926;2023-03-05T04:13:44;6.00;97.10
1165;DHT22;571;50.930;6.926;2023-03-05T04:16:10;6.10;97.00
1165;DHT22;571;50.930;6.926;2023-03-05T04:18:37;6.30;96.20
1165;DHT22;571;50.930;6.926;2023-03-05T04:21:05;6.20;96.60
1165;DHT22;571;50.930;6.926;2023-03-05T04:23:33;6.20;96.50
1165;DHT22;571;50.930;6.926;2023-03-05T04:25:59;6.10;96.70
1165;DHT22;571;50.930;6.926;2023-03-05T04:28:26;6.00;97.20
1165;DHT22;571;50.930;6.926;2023-03-05T04:30:53;5.90;97.30
1165;DHT22;571;50.930;6.926;2023-03-05T04:33:20;5.80;97.60
1165;DHT22;571;50.930;6.926;2023-03-05T04:35:47;5.80;97.70
1165;DHT22;571;50.930;6.926;2023-03-05T04:38:15;5.80;97.60
1165;DHT22;571;50.930;6.926;2023-03-05T04:40:43;5.80;97.60
1165;DHT22;571;50.930;6.926;2023-03-05T04:43:10;5.80;97.60
1165;DHT22;571;50.930;6.926;2023-03-05T04:45:38;5.90;97.30
1165;DHT22;571;50.930;6.926;2023-03-05T04:48:05;6.00;97.30
1165;DHT22;571;50.930;6.926;2023-03-05T04:50:32;5.80;97.40
1165;DHT22;571;50.930;6.926;2023-03-05T04:52:59;5.80;97.70
1165;DHT22;571;50.930;6.926;2023-03-05T04:55:27;5.70;97.80
1165;DHT22;571;50.930;6.926;2023-03-05T04:57:54;5.90;97.30
1165;DHT22;571;50.930;6.926;2023-03-05T05:00:21;6.00;97.00
1165;DHT22;571;50.930;6.926;2023-03-05T05:02:49;5.90;97.30
1165;DHT22;571;50.930;6.926;2023-03-05T05:05:18;5.80;97.60
1165;DHT22;571;50.930;6.926;2023-03-05T05:07:45;5.80;97.50
1165;DHT22;571;50.930;6.926;2023-03-05T05:10:13;5.80;97.50
1165;DHT22;571;50.930;6.926;2023-03-05T05:12:42;5.80;97.90
1165;DHT22;571;50.930;6.926;2023-03-05T05:15:10;5.80;97.40
1165;DHT22;571;50.930;6.926;2023-03-05T05:17:38;5.90;97.00
1165;DHT22;571;50.930;6.926;2023-03-05T05:20:06;5.90;97.10
1165;DHT22;571;50.930;6.926;2023-03-05T05:22:36;5.90;97.20
1165;DHT22;571;50.930;6.926;2023-03-05T05:25:03;5.90;97.20
1165;DHT22;571;50.930;6.926;2023-03-05T05:27:30;5.80;97.30
1165;DHT22;571;50.930;6.926;2023-03-05T05:29:59;5.80;97.30
1165;DHT22;571;50.930;6.926;2023-03-05T05:32:26;5.80;97.30
1165;DHT22;571;50.930;6.926;2023-03-05T05:34:53;5.80;97.40
1165;DHT22;571;50.930;6.926;2023-03-05T05:37:20;5.70;97.90
1165;DHT22;571;50.930;6.926;2023-03-05T05:39:47;5.70;97.90
1165;DHT22;571;50.930;6.926;2023-03-05T05:42:14;5.70;97.70
1165;DHT22;571;50.930;6.926;2023-03-05T05:44:41;5.80;97.40
1165;DHT22;571;50.930;6.926;2023-03-05T05:47:09;5.90;97.10
1165;DHT22;571;50.930;6.926;2023-03-05T05:49:36;5.90;96.80
1165;DHT22;571;50.930;6.926;2023-03-05T05:52:03;5.90;97.00
1165;DHT22;571;50.930;6.926;2023-03-05T05:54:30;5.90;97.30
1165;DHT22;571;50.930;6.926;2023-03-05T05:56:57;5.90;97.20
1165;DHT22;571;50.930;6.926;2023-03-05T05:59:23;5.80;97.30
1165;DHT22;571;50.930;6.926;2023-03-05T06:01:50;5.70;97.50
1165;DHT22;571;50.930;6.926;2023-03-05T06:04:18;5.80;97.40
1165;DHT22;571;50.930;6.926;2023-03-05T06:06:45;5.80;97.40
1165;DHT22;571;50.930;6.926;2023-03-05T06:09:12;5.70;97.40
1165;DHT22;571;50.930;6.926;2023-03-05T06:11:39;5.60;97.60
1165;DHT22;571;50.930;6.926;2023-03-05T06:14:05;5.60;97.70
1165;DHT22;571;50.930;6.926;2023-03-05T06:16:33;5.60;97.50
1165;DHT22;571;50.930;6.926;2023-03-05T06:19:00;5.70;97.30
1165;DHT22;571;50.930;6.926;2023-03-05T06:21:30;5.70;97.80
1165;DHT22;571;50.930;6.926;2023-03-05T06:23:57;5.60;98.20
1165;DHT22;571;50.930;6.926;2023-03-05T06:26:24;5.60;98.30
1165;DHT22;571;50.930;6.926;2023-03-05T06:28:51;5.80;97.20
1165;DHT22;571;50.930;6.926;2023-03-05T06:31:20;5.90;97.00
1165;DHT22;571;50.930;6.926;2023-03-05T06:33:48;5.90;97.30
1165;DHT22;571;50.930;6.926;2023-03-05T06:36:17;5.90;97.00
1165;DHT22;571;50.930;6.926;2023-03-05T06:38:45;5.90;97.20
1165;DHT22;571;50.930;6.926;2023-03-05T06:41:13;5.80;97.00
1165;DHT22;571;50.930;6.926;2023-03-05T06:43:41;5.80;97.30
1165;DHT22;571;50.930;6.926;2023-03-05T06:46:11;5.90;97.00
1165;DHT22;571;50.930;6.926;2023-03-05T06:48:38;5.80;97.50
1165;DHT22;571;50.930;6.926;2023-03-05T06:51:06;5.80;97.30
1165;DHT22;571;50.930;6.926;2023-03-05T06:53:37;5.90;97.10
1165;DHT22;571;50.930;6.926;2023-03-05T06:56:05;6.10;96.80
1165;DHT22;571;50.930;6.926;2023-03-05T06:58:40;6.10;96.60
1165;DHT22;571;50.930;6.926;2023-03-05T07:01:07;6.30;96.20
1165;DHT22;571;50.930;6.926;2023-03-05T07:03:34;6.40;96.10
1165;DHT22;571;50.930;6.926;2023-03-05T07:06:02;6.40;95.90
1165;DHT22;571;50.930;6.926;2023-03-05T07:08:29;6.30;96.00
1165;DHT22;571;50.930;6.926;2023-03-05T07:10:56;6.40;96.00
1165;DHT22;571;50.930;6.926;2023-03-05T07:13:25;6.40;96.10
1165;DHT22;571;50.930;6.926;2023-03-05T07:15:52;6.50;95.90
1165;DHT22;571;50.930;6.926;2023-03-05T07:18:19;6.50;95.80
1165;DHT22;571;50.930;6.926;2023-03-05T07:20:46;6.50;96.00
1165;DHT22;571;50.930;6.926;2023-03-05T07:23:13;6.50;96.00
1165;DHT22;571;50.930;6.926;2023-03-05T07:25:39;6.50;95.90
1165;DHT22;571;50.930;6.926;2023-03-05T07:28:07;6.50;95.90
1165;DHT22;571;50.930;6.926;2023-03-05T07:30:36;6.30;96.30
1165;DHT22;571;50.930;6.926;2023-03-05T07:33:03;6.30;96.50
1165;DHT22;571;50.930;6.926;2023-03-05T07:35:29;6.20;96.90
1165;DHT22;571;50.930;6.926;2023-03-05T07:38:01;6.30;96.50
1165;DHT22;571;50.930;6.926;2023-03-05T07:40:28;6.40;96.40
1165;DHT22;571;50.930;6.926;2023-03-05T07:42:54;6.30;96.30
1165;DHT22;571;50.930;6.926;2023-03-05T07:45:21;6.50;95.90
1165;DHT22;571;50.930;6.926;2023-03-05T07:47:49;6.50;95.80
1165;DHT22;571;50.930;6.926;2023-03-05T07:50:16;6.50;95.70
1165;DHT22;571;50.930;6.926;2023-03-05T07:52:43;6.40;96.00
1165;DHT22;571;50.930;6.926;2023-03-05T07:55:15;6.30;96.20
1165;DHT22;571;50.930;6.926;2023-03-05T07:57:45;6.30;96.40
1165;DHT22;571;50.930;6.926;2023-03-05T08:00:12;6.20;96.20
1165;DHT22;571;50.930;6.926;2023-03-05T08:02:39;6.20;96.30
1165;DHT22;571;50.930;6.926;2023-03-05T08:05:07;6.30;96.20
1165;DHT22;571;50.930;6.926;2023-03-05T08:07:34;6.40;96.20
1165;DHT22;571;50.930;6.926;2023-03-05T08:10:01;6.50;95.60
1165;DHT22;571;50.930;6.926;2023-03-05T08:12:29;6.50;95.60
1165;DHT22;571;50.930;6.926;2023-03-05T08:14:55;6.60;95.60
1165;DHT22;571;50.930;6.926;2023-03-05T08:17:22;6.70;95.10
1165;DHT22;571;50.930;6.926;2023-03-05T08:19:49;6.50;95.70
1165;DHT22;571;50.930;6.926;2023-03-05T08:22:16;6.30;96.20
1165;DHT22;571;50.930;6.926;2023-03-05T08:24:45;6.30;96.30
1165;DHT22;571;50.930;6.926;2023-03-05T08:27:11;6.30;96.30
1165;DHT22;571;50.930;6.926;2023-03-05T08:29:38;6.30;96.30
1165;DHT22;571;50.930;6.926;2023-03-05T08:32:05;6.40;96.40
1165;DHT22;571;50.930;6.926;2023-03-05T08:34:31;6.60;95.70
1165;DHT22;571;50.930;6.926;2023-03-05T08:36:58;6.70;95.30
1165;DHT22;571;50.930;6.926;2023-03-05T08:39:26;6.80;95.00
1165;DHT22;571;50.930;6.926;2023-03-05T08:41:54;6.90;94.80
1165;DHT22;571;50.930;6.926;2023-03-05T08:44:21;6.80;95.30
1165;DHT22;571;50.930;6.926;2023-03-05T08:46:48;6.80;95.10
1165;DHT22;571;50.930;6.926;2023-03-05T08:49:14;6.70;95.20
1165;DHT22;571;50.930;6.926;2023-03-05T08:51:41;6.50;95.60
1165;DHT22;571;50.930;6.926;2023-03-05T08:54:08;6.60;95.90
1165;DHT22;571;50.930;6.926;2023-03-05T08:56:37;6.60;95.80
1165;DHT22;571;50.930;6.926;2023-03-05T08:59:04;6.90;95.30
1165;DHT22;571;50.930;6.926;2023-03-05T09:01:31;6.90;95.30
1165;DHT22;571;50.930;6.926;2023-03-05T09:03:58;6.90;95.20
1165;DHT22;571;50.930;6.926;2023-03-05T09:06:25;6.80;95.50
1165;DHT22;571;50.930;6.926;2023-03-05T09:08:52;6.80;95.80
1165;DHT22;571;50.930;6.926;2023-03-05T09:11:20;6.80;95.60
1165;DHT22;571;50.930;6.926;2023-03-05T09:13:48;6.70;95.90
1165;DHT22;571;50.930;6.926;2023-03-05T09:16:17;6.70;96.10
1165;DHT22;571;50.930;6.926;2023-03-05T09:18:44;6.70;95.90
1165;DHT22;571;50.930;6.926;2023-03-05T09:21:13;6.90;95.80
1165;DHT22;571;50.930;6.926;2023-03-05T09:23:41;6.90;95.30
1165;DHT22;571;50.930;6.926;2023-03-05T09:26:10;7.00;95.10
1165;DHT22;571;50.930;6.926;2023-03-05T09:28:37;7.10;95.00
1165;DHT22;571;50.930;6.926;2023-03-05T09:31:07;7.20;95.10
1165;DHT22;571;50.930;6.926;2023-03-05T09:33:35;7.10;95.30
1165;DHT22;571;50.930;6.926;2023-03-05T09:36:03;7.20;95.30
1165;DHT22;571;50.930;6.926;2023-03-05T09:38:30;7.20;95.50
1165;DHT22;571;50.930;6.926;2023-03-05T09:41:02;7.20;96.00
1165;DHT22;571;50.930;6.926;2023-03-05T09:43:43;7.40;95.40
1165;DHT22;571;50.930;6.926;2023-03-05T09:46:23;7.50;95.10
1165;DHT22;571;50.930;6.926;2023-03-05T09:48:59;7.60;95.40
1165;DHT22;571;50.930;6.926;2023-03-05T09:51:34;7.60;95.30
1165;DHT22;571;50.930;6.926;2023-03-05T09:54:04;7.60;95.10
1165;DHT22;571;50.930;6.926;2023-03-05T09:56:35;7.70;94.10
1165;DHT22;571;50.930;6.926;2023-03-05T09:59:04;7.70;94.30
1165;DHT22;571;50.930;6.926;2023-03-05T10:01:42;7.60;94.30
1165;DHT22;571;50.930;6.926;2023-03-05T10:04:13;7.50;94.00
1165;DHT22;571;50.930;6.926;2023-03-05T10:06:47;7.70;93.90
1165;DHT22;571;50.930;6.926;2023-03-05T10:09:26;7.60;93.70
1165;DHT22;571;50.930;6.926;2023-03-05T10:12:00;7.70;93.70
1165;DHT22;571;50.930;6.926;2023-03-05T10:14:30;7.50;94.10
1165;DHT22;571;50.930;6.926;2023-03-05T10:17:27;7.50;94.40
1165;DHT22;571;50.930;6.926;2023-03-05T10:20:26;7.40;94.60
1165;DHT22;571;50.930;6.926;2023-03-05T10:23:03;7.50;94.70
1165;DHT22;571;50.930;6.926;2023-03-05T10:25:45;7.30;95.10
1165;DHT22;571;50.930;6.926;2023-03-05T10:28:16;7.30;95.70
1165;DHT22;571;50.930;6.926;2023-03-05T10:30:56;7.40;95.70
1165;DHT22;571;50.930;6.926;2023-03-05T10:33:34;7.40;96.00
1165;DHT22;571;50.930;6.926;2023-03-05T10:36:24;7.40;96.50
1165;DHT22;571;50.930;6.926;2023-03-05T10:39:07;7.20;97.00
1165;DHT22;571;50.930;6.926;2023-03-05T10:41:47;7.10;97.00
1165;DHT22;571;50.930;6.926;2023-03-05T10:44:23;6.90;98.10
1165;DHT22;571;50.930;6.926;2023-03-05T10:46:56;6.90;98.10
1165;DHT22;571;50.930;6.926;2023-03-05T10:49:27;6.80;99.30
1165;DHT22;571;50.930;6.926;2023-03-05T10:51:58;6.60;99.00
1165;DHT22;571;50.930;6.926;2023-03-05T10:54:30;6.50;99.80
1165;DHT22;571;50.930;6.926;2023-03-05T10:57:09;6.60;99.40
1165;DHT22;571;50.930;6.926;2023-03-05T10:59:41;6.70;99.00
1165;DHT22;571;50.930;6.926;2023-03-05T11:02:09;6.70;99.50
1165;DHT22;571;50.930;6.926;2023-03-05T11:04:38;6.70;99.70
1165;DHT22;571;50.930;6.926;2023-03-05T11:07:07;6.70;99.60
1165;DHT22;571;50.930;6.926;2023-03-05T11:09:34;6.80;99.10
1165;DHT22;571;50.930;6.926;2023-03-05T11:12:05;6.70;99.50
1165;DHT22;571;50.930;6.926;2023-03-05T11:14:34;6.70;98.90
1165;DHT22;571;50.930;6.926;2023-03-05T11:17:23;6.70;98.00
1165;DHT22;571;50.930;6.926;2023-03-05T11:19:53;6.60;98.50
1165;DHT22;571;50.930;6.926;2023-03-05T11:22:21;6.60;98.80
1165;DHT22;571;50.930;6.926;2023-03-05T11:25:12;6.40;99.50
1165;DHT22;571;50.930;6.926;2023-03-05T11:27:48;6.50;99.80
1165;DHT22;571;50.930;6.926;2023-03-05T11:30:18;6.50;99.80
1165;DHT22;571;50.930;6.926;2023-03-05T11:32:45;6.50;99.90
1165;DHT22;571;50.930;6.926;2023-03-05T11:35:30;6.50;99.90
1165;DHT22;571;50.930;6.926;2023-03-05T11:38:01;6.70;99.90
1165;DHT22;571;50.930;6.926;2023-03-05T11:40:29;6.90;99.60
1165;DHT22;571;50.930;6.926;2023-03-05T11:42:58;7.10;99.30
1165;DHT22;571;50.930;6.926;2023-03-05T11:45:26;7.10;99.30
1165;DHT22;571;50.930;6.926;2023-03-05T11:47:55;7.10;99.20
1165;DHT22;571;50.930;6.926;2023-03-05T11:50:25;7.20;98.70
1165;DHT22;571;50.930;6.926;2023-03-05T11:52:56;7.30;98.50
1165;DHT22;571;50.930;6.926;2023-03-05T11:55:26;7.30;98.00
1165;DHT22;571;50.930;6.926;2023-03-05T11:58:02;7.10;98.50
1165;DHT22;571;50.930;6.926;2023-03-05T12:00:31;7.10;98.70
1165;DHT22;571;50.930;6.926;2023-03-05T12:03:01;7.10;98.50
1165;DHT22;571;50.930;6.926;2023-03-05T12:05:31;7.00;99.30
1165;DHT22;571;50.930;6.926;2023-03-05T12:08:00;7.00;99.30
1165;DHT22;571;50.930;6.926;2023-03-05T12:10:28;7.10;98.30
1165;DHT22;571;50.930;6.926;2023-03-05T12:12:58;7.00;98.20
1165;DHT22;571;50.930;6.926;2023-03-05T12:16:00;7.10;98.00
1165;DHT22;571;50.930;6.926;2023-03-05T12:18:36;7.40;97.40
1165;DHT22;571;50.930;6.926;2023-03-05T12:21:14;7.50;97.00
1165;DHT22;571;50.930;6.926;2023-03-05T12:23:47;7.40;97.20
1165;DHT22;571;50.930;6.926;2023-03-05T12:26:15;7.30;97.30
1165;DHT22;571;50.930;6.926;2023-03-05T12:28:55;7.30;97.70
1165;DHT22;571;50.930;6.926;2023-03-05T12:31:33;7.40;97.70
1165;DHT22;571;50.930;6.926;2023-03-05T12:34:36;7.40;97.50
1165;DHT22;571;50.930;6.926;2023-03-05T12:37:13;7.40;97.50
1165;DHT22;571;50.930;6.926;2023-03-05T12:39:45;7.60;97.10
1165;DHT22;571;50.930;6.926;2023-03-05T12:42:46;7.60;97.10
1165;DHT22;571;50.930;6.926;2023-03-05T12:45:35;7.60;97.00
1165;DHT22;571;50.930;6.926;2023-03-05T12:48:39;7.70;96.80
1165;DHT22;571;50.930;6.926;2023-03-05T12:51:11;7.60;96.10
1165;DHT22;571;50.930;6.926;2023-03-05T12:53:39;7.50;96.90
1165;DHT22;571;50.930;6.926;2023-03-05T12:56:15;7.40;96.80
1165;DHT22;571;50.930;6.926;2023-03-05T12:58:44;7.50;96.90
1165;DHT22;571;50.930;6.926;2023-03-05T13:01:27;7.60;96.20
1165;DHT22;571;50.930;6.926;2023-03-05T13:03:56;7.70;96.20
1165;DHT22;571;50.930;6.926;2023-03-05T13:06:26;7.70;96.70
1165;DHT22;571;50.930;6.926;2023-03-05T13:09:00;7.80;96.10
1165;DHT22;571;50.930;6.926;2023-03-05T13:11:29;7.90;96.10
1165;DHT22;571;50.930;6.926;2023-03-05T13:13:59;7.80;96.40
1165;DHT22;571;50.930;6.926;2023-03-05T13:16:28;7.80;96.60
1165;DHT22;571;50.930;6.926;2023-03-05T13:18:58;7.70;97.30
1165;DHT22;571;50.930;6.926;2023-03-05T13:21:26;7.80;96.60
1165;DHT22;571;50.930;6.926;2023-03-05T13:23:55;7.80;95.80
1165;DHT22;571;50.930;6.926;2023-03-05T13:26:27;7.90;95.60
1165;DHT22;571;50.930;6.926;2023-03-05T13:29:09;8.00;95.00
1165;DHT22;571;50.930;6.926;2023-03-05T13:31:41;8.00;95.30
1165;DHT22;571;50.930;6.926;2023-03-05T13:34:14;8.10;94.70
1165;DHT22;571;50.930;6.926;2023-03-05T13:36:45;8.00;95.10
1165;DHT22;571;50.930;6.926;2023-03-05T13:39:18;8.10;94.20
1165;DHT22;571;50.930;6.926;2023-03-05T13:41:57;8.20;94.30
1165;DHT22;571;50.930;6.926;2023-03-05T13:44:24;8.30;93.60
1165;DHT22;571;50.930;6.926;2023-03-05T13:46:51;8.10;93.80
1165;DHT22;571;50.930;6.926;2023-03-05T13:49:22;8.00;94.40
1165;DHT22;571;50.930;6.926;2023-03-05T13:51:51;7.90;94.90
1165;DHT22;571;50.930;6.926;2023-03-05T13:54:18;7.70;95.90
1165;DHT22;571;50.930;6.926;2023-03-05T13:56:50;7.60;96.20
1165;DHT22;571;50.930;6.926;2023-03-05T13:59:20;7.60;96.00
1165;DHT22;571;50.930;6.926;2023-03-05T14:01:47;7.60;96.10
1165;DHT22;571;50.930;6.926;2023-03-05T14:04:18;7.70;95.70
1165;DHT22;571;50.930;6.926;2023-03-05T14:06:47;7.70;95.30
1165;DHT22;571;50.930;6.926;2023-03-05T14:09:19;7.70;95.90
1165;DHT22;571;50.930;6.926;2023-03-05T14:11:58;7.80;95.60
1165;DHT22;571;50.930;6.926;2023-03-05T14:14:28;8.10;94.50
1165;DHT22;571;50.930;6.926;2023-03-05T14:16:55;8.20;94.20
1165;DHT22;571;50.930;6.926;2023-03-05T14:19:32;8.10;94.50
1165;DHT22;571;50.930;6.926;2023-03-05T14:22:00;8.10;94.80
1165;DHT22;571;50.930;6.926;2023-03-05T14:24:27;8.20;94.80
1165;DHT22;571;50.930;6.926;2023-03-05T14:26:57;8.20;94.60
1165;DHT22;571;50.930;6.926;2023-03-05T14:29:27;8.10;94.70
1165;DHT22;571;50.930;6.926;2023-03-05T14:31:55;7.90;95.20
1165;DHT22;571;50.930;6.926;2023-03-05T14:34:25;7.60;96.10
1165;DHT22;571;50.930;6.926;2023-03-05T14:36:55;7.60;96.30
1165;DHT22;571;50.930;6.926;2023-03-05T14:39:30;7.70;96.00
1165;DHT22;571;50.930;6.926;2023-03-05T14:44:58;7.30;97.50
1165;DHT22;571;50.930;6.926;2023-03-05T14:47:26;7.20;98.20
1165;DHT22;571;50.930;6.926;2023-03-05T14:49:53;7.10;98.30
1165;DHT22;571;50.930;6.926;2023-03-05T14:52:25;7.00;99.70
1165;DHT22;571;50.930;6.926;2023-03-05T14:54:53;7.00;99.20
1165;DHT22;571;50.930;6.926;2023-03-05T14:57:24;6.90;99.30
1165;DHT22;571;50.930;6.926;2023-03-05T14:59:52;6.80;99.70
1165;DHT22;571;50.930;6.926;2023-03-05T15:02:24;6.80;99.40
1165;DHT22;571;50.930;6.926;2023-03-05T15:04:51;6.80;99.20
1165;DHT22;571;50.930;6.926;2023-03-05T15:07:24;6.70;99.50
1165;DHT22;571;50.930;6.926;2023-03-05T15:09:52;6.80;99.40
1165;DHT22;571;50.930;6.926;2023-03-05T15:12:19;6.70;99.90
1165;DHT22;571;50.930;6.926;2023-03-05T15:14:52;6.70;99.80
1165;DHT22;571;50.930;6.926;2023-03-05T15:17:23;6.90;99.20
1165;DHT22;571;50.930;6.926;2023-03-05T15:19:51;6.80;99.40
1165;DHT22;571;50.930;6.926;2023-03-05T15:22:18;6.70;99.90
1165;DHT22;571;50.930;6.926;2023-03-05T15:24:45;6.80;99.90
1165;DHT22;571;50.930;6.926;2023-03-05T15:27:12;6.80;99.60
1165;DHT22;571;50.930;6.926;2023-03-05T15:29:39;6.90;99.40
1165;DHT22;571;50.930;6.926;2023-03-05T15:32:06;7.10;99.00
1165;DHT22;571;50.930;6.926;2023-03-05T15:34:34;7.10;98.60
1165;DHT22;571;50.930;6.926;2023-03-05T15:37:01;7.30;98.30
1165;DHT22;571;50.930;6.926;2023-03-05T15:39:28;7.30;98.20
1165;DHT22;571;50.930;6.926;2023-03-05T15:41:55;7.40;98.00
1165;DHT22;571;50.930;6.926;2023-03-05T15:44:22;7.40;97.90
1165;DHT22;571;50.930;6.926;2023-03-05T15:46:49;7.40;98.00
1165;DHT22;571;50.930;6.926;2023-03-05T15:49:16;7.30;98.40
1165;DHT22;571;50.930;6.926;2023-03-05T15:51:44;7.20;98.70
1165;DHT22;571;50.930;6.926;2023-03-05T15:54:11;7.10;98.90
1165;DHT22;571;50.930;6.926;2023-03-05T15:56:39;7.20;98.40
1165;DHT22;571;50.930;6.926;2023-03-05T15:59:06;7.20;98.40
1165;DHT22;571;50.930;6.926;2023-03-05T16:01:34;7.10;98.40
1165;DHT22;571;50.930;6.926;2023-03-05T16:04:01;7.10;98.70
1165;DHT22;571;50.930;6.926;2023-03-05T16:06:28;7.00;99.00
1165;DHT22;571;50.930;6.926;2023-03-05T16:08:59;7.10;98.70
1165;DHT22;571;50.930;6.926;2023-03-05T16:11:27;7.00;99.20
1165;DHT22;571;50.930;6.926;2023-03-05T16:13:57;6.90;99.80
1165;DHT22;571;50.930;6.926;2023-03-05T16:16:26;6.90;99.50
1165;DHT22;571;50.930;6.926;2023-03-05T16:18:53;6.90;99.50
1165;DHT22;571;50.930;6.926;2023-03-05T16:21:20;7.10;98.70
1165;DHT22;571;50.930;6.926;2023-03-05T16:23:47;7.10;98.70
1165;DHT22;571;50.930;6.926;2023-03-05T16:26:15;7.10;98.70
1165;DHT22;571;50.930;6.926;2023-03-05T16:28:43;7.10;98.20
1165;DHT22;571;50.930;6.926;2023-03-05T16:31:09;7.20;97.60
1165;DHT22;571;50.930;6.926;2023-03-05T16:33:36;7.10;97.80
1165;DHT22;571;50.930;6.926;2023-03-05T16:36:18;7.10;97.90
1165;DHT22;571;50.930;6.926;2023-03-05T16:38:47;7.00;98.00
1165;DHT22;571;50.930;6.926;2023-03-05T16:41:16;7.00;98.20
1165;DHT22;571;50.930;6.926;2023-03-05T16:43:43;7.00;98.20
1165;DHT22;571;50.930;6.926;2023-03-05T16:46:11;7.00;98.40
1165;DHT22;571;50.930;6.926;2023-03-05T16:48:39;7.00;98.20
1165;DHT22;571;50.930;6.926;2023-03-05T16:51:07;7.00;98.10
1165;DHT22;571;50.930;6.926;2023-03-05T16:53:34;7.00;98.40
1165;DHT22;571;50.930;6.926;2023-03-05T16:56:01;7.10;97.90
1165;DHT22;571;50.930;6.926;2023-03-05T16:58:30;6.90;98.20
1165;DHT22;571;50.930;6.926;2023-03-05T17:00:57;6.80;98.80
1165;DHT22;571;50.930;6.926;2023-03-05T17:03:24;6.80;98.70
1165;DHT22;571;50.930;6.926;2023-03-05T17:05:51;6.80;98.50
1165;DHT22;571;50.930;6.926;2023-03-05T17:08:19;6.80;98.60
1165;DHT22;571;50.930;6.926;2023-03-05T17:10:45;6.80;98.60
1165;DHT22;571;50.930;6.926;2023-03-05T17:13:12;6.90;98.20
1165;DHT22;571;50.930;6.926;2023-03-05T17:15:40;6.70;98.70
1165;DHT22;571;50.930;6.926;2023-03-05T17:18:07;6.80;98.20
1165;DHT22;571;50.930;6.926;2023-03-05T17:20:34;6.80;98.30
1165;DHT22;571;50.930;6.926;2023-03-05T17:23:01;6.80;98.20
1165;DHT22;571;50.930;6.926;2023-03-05T17:25:29;6.90;97.80
1165;DHT22;571;50.930;6.926;2023-03-05T17:27:55;6.80;98.30
1165;DHT22;571;50.930;6.926;2023-03-05T17:30:22;6.80;98.00
1165;DHT22;571;50.930;6.926;2023-03-05T17:32:52;6.60;98.50
1165;DHT22;571;50.930;6.926;2023-03-05T17:35:20;6.60;98.90
1165;DHT22;571;50.930;6.926;2023-03-05T17:37:48;6.70;98.30
1165;DHT22;571;50.930;6.926;2023-03-05T17:40:15;6.90;97.80
1165;DHT22;571;50.930;6.926;2023-03-05T17:42:42;6.80;97.60
1165;DHT22;571;50.930;6.926;2023-03-05T17:45:09;6.70;98.20
1165;DHT22;571;50.930;6.926;2023-03-05T17:47:36;6.70;98.30
1165;DHT22;571;50.930;6.926;2023-03-05T17:50:06;6.70;98.10
1165;DHT22;571;50.930;6.926;2023-03-05T17:52:33;6.70;98.00
1165;DHT22;571;50.930;6.926;2023-03-05T17:55:03;6.70;98.00
1165;DHT22;571;50.930;6.926;2023-03-05T17:57:33;6.70;98.20
1165;DHT22;571;50.930;6.926;2023-03-05T18:00:00;6.80;97.90
1165;DHT22;571;50.930;6.926;2023-03-05T18:02:27;6.70;98.00
1165;DHT22;571;50.930;6.926;2023-03-05T18:04:54;6.50;98.60
1165;DHT22;571;50.930;6.926;2023-03-05T18:07:22;6.40;99.10
1165;DHT22;571;50.930;6.926;2023-03-05T18:09:49;6.30;99.20
1165;DHT22;571;50.930;6.926;2023-03-05T18:12:16;6.30;99.40
1165;DHT22;571;50.930;6.926;2023-03-05T18:14:42;6.20;99.90
1165;DHT22;571;50.930;6.926;2023-03-05T18:17:09;6.30;99.40
1165;DHT22;571;50.930;6.926;2023-03-05T18:19:36;6.60;98.40
1165;DHT22;571;50.930;6.926;2023-03-05T18:22:03;6.60;98.00
1165;DHT22;571;50.930;6.926;2023-03-05T18:24:31;6.80;97.70
1165;DHT22;571;50.930;6.926;2023-03-05T18:26:57;6.60;98.20
1165;DHT22;571;50.930;6.926;2023-03-05T18:29:24;6.60;98.30
1165;DHT22;571;50.930;6.926;2023-03-05T18:31:51;6.40;98.60
1165;DHT22;571;50.930;6.926;2023-03-05T18:34:18;6.30;98.90
1165;DHT22;571;50.930;6.926;2023-03-05T18:36:45;6.40;98.60
1165;DHT22;571;50.930;6.926;2023-03-05T18:39:12;6.60;98.00
1165;DHT22;571;50.930;6.926;2023-03-05T18:41:42;6.70;97.60
1165;DHT22;571;50.930;6.926;2023-03-05T18:44:08;6.70;97.70
1165;DHT22;571;50.930;6.926;2023-03-05T18:46:35;6.50;97.80
1165;DHT22;571;50.930;6.926;2023-03-05T18:49:02;6.40;98.20
1165;DHT22;571;50.930;6.926;2023-03-05T18:51:29;6.40;98.40
1165;DHT22;571;50.930;6.926;2023-03-05T18:53:55;6.40;98.30
1165;DHT22;571;50.930;6.926;2023-03-05T18:56:23;6.40;98.60
1165;DHT22;571;50.930;6.926;2023-03-05T18:58:51;6.50;98.00
1165;DHT22;571;50.930;6.926;2023-03-05T19:01:18;6.50;97.90
1165;DHT22;571;50.930;6.926;2023-03-05T19:03:46;6.70;97.40
1165;DHT22;571;50.930;6.926;2023-03-05T19:06:13;6.60;97.50
1165;DHT22;571;50.930;6.926;2023-03-05T19:08:42;6.50;97.90
1165;DHT22;571;50.930;6.926;2023-03-05T19:11:14;6.40;98.40
1165;DHT22;571;50.930;6.926;2023-03-05T19:13:41;6.30;98.20
1165;DHT22;571;50.930;6.926;2023-03-05T19:16:12;6.30;98.40
1165;DHT22;571;50.930;6.926;2023-03-05T19:18:45;6.30;98.30
1165;DHT22;571;50.930;6.926;2023-03-05T19:21:28;6.20;98.50
1165;DHT22;571;50.930;6.926;2023-03-05T19:23:55;6.10;98.90
1165;DHT22;571;50.930;6.926;2023-03-05T19:26:22;6.20;98.80
1165;DHT22;571;50.930;6.926;2023-03-05T19:28:49;6.20;98.70
1165;DHT22;571;50.930;6.926;2023-03-05T19:31:17;6.30;98.40
1165;DHT22;571;50.930;6.926;2023-03-05T19:33:44;6.40;98.20
1165;DHT22;571;50.930;6.926;2023-03-05T19:36:11;6.40;98.00
1165;DHT22;571;50.930;6.926;2023-03-05T19:38:39;6.20;98.50
1165;DHT22;571;50.930;6.926;2023-03-05T19:41:08;6.20;98.70
1165;DHT22;571;50.930;6.926;2023-03-05T19:43:37;6.30;98.20
1165;DHT22;571;50.930;6.926;2023-03-05T19:46:06;6.20;98.90
1165;DHT22;571;50.930;6.926;2023-03-05T19:48:35;6.30;98.40
1165;DHT22;571;50.930;6.926;2023-03-05T19:51:07;6.10;98.70
1165;DHT22;571;50.930;6.926;2023-03-05T19:53:34;6.20;98.80
1165;DHT22;571;50.930;6.926;2023-03-05T19:56:01;6.20;98.70
1165;DHT22;571;50.930;6.926;2023-03-05T19:58:30;6.30;98.20
1165;DHT22;571;50.930;6.926;2023-03-05T20:01:07;6.40;98.00
1165;DHT22;571;50.930;6.926;2023-03-05T20:03:35;6.30;98.40
1165;DHT22;571;50.930;6.926;2023-03-05T20:06:03;6.20;98.50
1165;DHT22;571;50.930;6.926;2023-03-05T20:08:30;6.30;98.30
1165;DHT22;571;50.930;6.926;2023-03-05T20:10:57;6.30;98.20
1165;DHT22;571;50.930;6.926;2023-03-05T20:13:24;6.30;98.40
1165;DHT22;571;50.930;6.926;2023-03-05T20:15:51;6.20;98.40
1165;DHT22;571;50.930;6.926;2023-03-05T20:18:18;6.30;98.30
1165;DHT22;571;50.930;6.926;2023-03-05T20:20:50;6.40;97.90
1165;DHT22;571;50.930;6.926;2023-03-05T20:23:17;6.30;98.20
1165;DHT22;571;50.930;6.926;2023-03-05T20:25:44;6.30;98.60
1165;DHT22;571;50.930;6.926;2023-03-05T20:28:13;6.40;98.20
1165;DHT22;571;50.930;6.926;2023-03-05T20:30:40;6.40;98.00
1165;DHT22;571;50.930;6.926;2023-03-05T20:33:08;6.60;97.90
1165;DHT22;571;50.930;6.926;2023-03-05T20:35:35;6.50;97.70
1165;DHT22;571;50.930;6.926;2023-03-05T20:38:12;6.50;97.70